首页
METAR-TAF:

METAR-TAF

机场 :

潘狄頓區域機場

Penticton, 不列颠哥伦比亚, 加拿大

纬度: 49-28N, 经度: 119-36W, 海拔: 344米

当前天气观测

该预报发布于34分钟前的04:00 UTC
风速4节,风向北转东北,在之间变化
温度 4°C
湿度 41%
气压 1023 hPa
能見度: 24.1公里
少量云层高于10000英尺

METAR: CYYF 110400Z 03004KT 010V090 15SM FEW100 04/M08 A3021 RMK AC2 SLP241

时间: 21:34 (04:34 UTC)

预报

该预报发布于3小时和56分钟前的00:38 UTC
预报有效从11日的 01点(UTC)到 11日的 13点(UTC)
风速3节,风向多变
能見度: 10公里
散云层高于6000英尺
散云层高于10000英尺
短暂存在
从 11日的 01点(UTC)到 11日的 04点(UTC)
风速15节,风向,有时为25节阵风
能見度: 8.0公里
多云层高于6000英尺
多云层高于10000英尺
小阵雨, 轻雾
从 11日的 0400点(UTC)
风速3节,风向多变
能見度: 10公里
天空无云

TAF: CYYF 110038Z 1101/1113 VRB03KT P6SM SCT060 SCT100 TEMPO 1101/1104 35015G25KT 5SM -SHRA BR BKN060 BKN100 FM110400 VRB03KT P6SM SKC RMK NXT FCST BY 110700Z

超过4000个机场的气象观测和天气预报(METAR&TAF报告)。

可查询的气象台以黄色和红色小点在地图上表示。

将鼠标移到小点上方,可查看气象台名称。

然后点击查看天气观测和预报。

如需切换地图:点击带黑十字的绿色按钮放大地图;点击带横线的绿色按钮缩小地图;或者点击绿色箭头查看邻近地区的地图。


METAR-TAF: